Time;durP1;ratioP1;P1;durP2;ratioP2;P2;SDS_P1;SDS_P2;PMS_P1;PMS_P2;Temp;Humidity;BMP_temperature;BMP_pressure;BME280_temperature;BME280_humidity;BME280_pressure;Samples;Min_cycle;Max_cycle;Signal;HPM_P1;HPM_P2
2022/05/20 00:01:49;;;;;;;5.63;3.53;;;;;;;15.64;68.49;93636.06;4991735;28;20034;-74
2022/05/20 00:04:14;;;;;;;8.43;3.78;;;;;;;15.59;68.78;93637.69;4974316;28;20034;-74
2022/05/20 00:06:40;;;;;;;8.02;3.70;;;;;;;15.60;68.89;93638.47;4991331;28;20030;-74
2022/05/20 00:09:06;;;;;;;5.18;3.38;;;;;;;15.59;68.98;93642.97;4973347;28;20129;-74
2022/05/20 00:11:32;;;;;;;10.10;4.10;;;;;;;15.53;69.33;93635.44;4972527;28;20181;-74
2022/05/20 00:13:58;;;;;;;10.52;4.10;;;;;;;15.50;69.13;93642.06;4972217;28;20050;-75
2022/05/20 00:16:24;;;;;;;8.55;3.80;;;;;;;15.48;69.12;93636.28;4973607;28;20030;-74
2022/05/20 00:18:50;;;;;;;11.57;4.00;;;;;;;15.46;68.85;93637.66;4991602;28;20026;-74
2022/05/20 00:21:16;;;;;;;10.10;4.22;;;;;;;15.45;68.60;93630.81;4990578;28;20396;-75
2022/05/20 00:23:41;;;;;;;7.70;4.07;;;;;;;15.48;69.10;93635.50;4974128;28;20044;-74
2022/05/20 00:26:07;;;;;;;9.45;4.07;;;;;;;15.45;68.75;93631.59;4991292;28;20492;-74
2022/05/20 00:28:33;;;;;;;7.97;4.07;;;;;;;15.41;68.94;93630.59;4974138;28;20039;-75
2022/05/20 00:31:08;;;;;;;8.70;4.20;;;;;;;15.38;68.84;93631.97;4990525;28;20026;-74
2022/05/20 00:33:37;;;;;;;8.63;4.35;;;;;;;15.37;68.70;93634.88;4991261;28;20039;-74
2022/05/20 00:36:03;;;;;;;7.45;4.20;;;;;;;15.35;68.53;93631.75;4973839;28;20488;-74
2022/05/20 00:38:29;;;;;;;9.45;4.47;;;;;;;15.32;68.83;93635.75;4970757;28;20049;-74
2022/05/20 00:40:55;;;;;;;9.35;4.47;;;;;;;15.31;68.99;93642.09;4973869;28;20052;-74
2022/05/20 00:43:24;;;;;;;8.65;4.43;;;;;;;15.27;69.32;93641.09;4975611;28;20039;-75
2022/05/20 00:45:51;;;;;;;6.82;4.45;;;;;;;15.25;69.21;93642.47;4975747;28;20062;-74
2022/05/20 00:48:17;;;;;;;8.05;4.63;;;;;;;15.22;69.31;93645.66;4974222;28;20077;-74
2022/05/20 00:50:50;;;;;;;9.30;4.70;;;;;;;15.19;68.99;93645.16;4975799;28;20054;-74
2022/05/20 00:53:19;;;;;;;7.63;4.80;;;;;;;15.16;68.96;93637.84;4972307;28;20077;-74
2022/05/20 00:55:46;;;;;;;10.75;4.65;;;;;;;15.13;69.31;93634.97;4974259;28;20039;-74
2022/05/20 00:58:23;;;;;;;10.10;4.60;;;;;;;15.12;69.04;93639.47;4975308;28;20019;-74
2022/05/20 01:00:51;;;;;;;7.32;4.78;;;;;;;15.11;69.36;93637.13;4975464;28;20093;-74
2022/05/20 01:03:21;;;;;;;8.23;4.90;;;;;;;15.08;69.63;93642.97;4973083;28;20068;-74
2022/05/20 01:05:50;;;;;;;7.43;4.80;;;;;;;15.04;69.63;93637.50;4974173;28;20062;-74
2022/05/20 01:08:27;;;;;;;8.07;4.45;;;;;;;15.03;69.47;93633.28;4974108;28;20114;-74
2022/05/20 01:10:53;;;;;;;12.38;4.70;;;;;;;15.02;69.40;93638.81;4975365;28;20054;-75
2022/05/20 01:13:23;;;;;;;9.85;4.82;;;;;;;15.00;69.96;93631.22;4973069;28;20042;-74
2022/05/20 01:15:49;;;;;;;7.82;4.45;;;;;;;15.00;70.37;93631.22;4974071;28;20492;-75
2022/05/20 01:18:15;;;;;;;7.32;4.60;;;;;;;15.01;70.29;93627.50;4973795;28;20451;-74
2022/05/20 01:20:49;;;;;;;9.43;4.30;;;;;;;15.01;70.69;93630.13;4974973;28;20098;-74
2022/05/20 01:23:21;;;;;;;7.13;4.50;;;;;;;15.01;71.10;93632.75;4974491;28;20070;-74
2022/05/20 01:25:49;;;;;;;6.82;4.53;;;;;;;14.98;70.72;93628.06;4974121;28;20038;-74
2022/05/20 01:28:16;;;;;;;7.93;4.53;;;;;;;14.90;71.30;93620.78;4973350;28;20050;-75
2022/05/20 01:30:47;;;;;;;7.20;4.80;;;;;;;14.92;71.02;93627.34;4973604;28;20049;-74
2022/05/20 01:33:20;;;;;;;9.32;4.68;;;;;;;14.91;71.57;93628.44;4973458;28;20412;-74
2022/05/20 01:35:48;;;;;;;6.72;4.20;;;;;;;14.91;71.03;93630.28;4972549;28;20046;-74
2022/05/20 01:38:14;;;;;;;10.15;5.10;;;;;;;14.87;71.12;93629.28;4989171;28;20050;-74
2022/05/20 01:41:07;;;;;;;6.90;4.40;;;;;;;14.86;71.15;93631.13;4977107;28;20408;-74
2022/05/20 01:43:45;;;;;;;9.57;4.72;;;;;;;14.81;71.27;93625.91;4972906;28;20447;-74
2022/05/20 01:46:33;;;;;;;12.98;5.10;;;;;;;14.79;71.23;93628.06;4993783;28;20034;-74
2022/05/20 01:49:18;;;;;;;8.25;4.70;;;;;;;14.76;71.21;93624.13;4993905;28;20039;-74
2022/05/20 01:51:58;;;;;;;6.57;4.38;;;;;;;14.75;71.71;93625.22;4993092;28;20038;-74
2022/05/20 01:54:35;;;;;;;7.88;4.28;;;;;;;14.72;71.53;93609.94;4959330;28;20088;-74
2022/05/20 01:57:17;;;;;;;11.20;4.75;;;;;;;14.72;71.42;93623.13;4993611;28;20026;-74
2022/05/20 01:59:49;;;;;;;8.27;4.53;;;;;;;14.70;72.23;93622.66;4976324;28;20312;-74
2022/05/20 02:02:25;;;;;;;7.75;4.50;;;;;;;14.67;72.25;93620.56;4976277;28;20065;-75
2022/05/20 02:05:28;;;;;;;10.48;4.70;;;;;;;14.63;71.99;93619.56;4993195;28;20117;-74
2022/05/20 02:08:02;;;;;;;11.63;4.65;;;;;;;14.64;72.45;93613.25;4993233;28;20072;-74
2022/05/20 02:10:33;;;;;;;9.13;4.55;;;;;;;14.64;72.05;93618.50;4993667;28;20041;-74
2022/05/20 02:13:01;;;;;;;10.73;4.47;;;;;;;14.64;72.42;93621.16;4991138;28;20438;-74
2022/05/20 02:15:37;;;;;;;9.05;4.47;;;;;;;14.61;72.59;93619.06;4992455;28;20030;-74
2022/05/20 02:18:05;;;;;;;7.82;4.43;;;;;;;14.60;72.57;93616.72;4993222;28;20030;-74
2022/05/20 02:20:49;;;;;;;8.48;4.28;;;;;;;14.56;72.57;93619.13;4993526;28;20034;-74
2022/05/20 02:23:19;;;;;;;8.27;4.65;;;;;;;14.51;72.62;93614.69;4976187;28;20468;-75
2022/05/20 02:25:51;;;;;;;9.13;4.93;;;;;;;14.50;72.51;93617.59;4992534;28;20038;-74
2022/05/20 02:28:38;;;;;;;10.02;5.05;;;;;;;14.49;72.88;93621.31;4993095;28;20508;-74
2022/05/20 02:31:08;;;;;;;7.10;4.85;;;;;;;14.46;73.04;93617.38;4993252;28;20635;-74
2022/05/20 02:33:34;;;;;;;11.00;4.88;;;;;;;14.43;73.19;93615.28;4975716;28;20045;-74
2022/05/20 02:36:24;;;;;;;8.07;4.78;;;;;;;14.42;72.88;93615.59;4988322;28;20038;-74
2022/05/20 02:38:50;;;;;;;7.18;4.45;;;;;;;14.40;73.20;93607.97;4972147;28;20043;-74
2022/05/20 02:41:16;;;;;;;8.77;4.90;;;;;;;14.37;73.28;93609.31;4972365;28;20493;-74
2022/05/20 02:43:43;;;;;;;7.72;4.93;;;;;;;14.35;73.63;93610.66;4973447;28;20045;-74
2022/05/20 02:46:09;;;;;;;14.70;5.82;;;;;;;14.34;73.62;93609.88;4971375;28;20035;-74
2022/05/20 02:48:36;;;;;;;11.95;5.18;;;;;;;14.32;74.75;93609.38;4972029;28;20035;-75
2022/05/20 02:51:02;;;;;;;8.25;5.18;;;;;;;14.29;74.65;93607.28;4972166;28;20035;-74
2022/05/20 02:53:27;;;;;;;9.13;5.05;;;;;;;14.27;74.70;93609.41;4972018;28;20093;-74
2022/05/20 02:55:53;;;;;;;7.45;4.72;;;;;;;14.24;74.65;93602.09;4973347;28;20043;-74
2022/05/20 03:04:11;;;;;;;13.13;5.72;;;;;;;14.20;74.82;93603.72;4973025;28;20045;-74
2022/05/20 03:06:39;;;;;;;10.32;5.43;;;;;;;14.19;74.73;93602.16;4973101;28;20431;-74
2022/05/20 03:09:07;;;;;;;7.25;4.78;;;;;;;14.21;75.47;93602.66;4972142;28;20119;-74
2022/05/20 03:11:34;;;;;;;12.18;4.80;;;;;;;14.21;76.00;93604.50;4972818;28;20472;-74
2022/05/20 03:14:01;;;;;;;9.27;5.63;;;;;;;14.19;76.01;93607.44;4971743;28;20042;-74
2022/05/20 03:16:27;;;;;;;8.82;5.05;;;;;;;14.20;76.02;93610.84;4971727;28;20102;-74
2022/05/20 03:18:52;;;;;;;10.88;4.97;;;;;;;14.19;76.41;93607.44;4970889;28;20027;-74
2022/05/20 03:21:18;;;;;;;11.35;5.20;;;;;;;14.19;77.00;93604.78;4970328;28;20051;-74
2022/05/20 03:23:44;;;;;;;14.80;5.35;;;;;;;14.19;77.68;93611.91;4971738;28;20093;-74
2022/05/20 03:26:09;;;;;;;7.88;5.10;;;;;;;14.16;77.47;93610.59;4971994;28;20053;-74
2022/05/20 03:28:35;;;;;;;8.45;4.90;;;;;;;14.15;77.12;93612.47;4970610;28;20037;-74
2022/05/20 03:31:07;;;;;;;11.63;5.30;;;;;;;14.12;77.55;93607.75;4969089;28;20130;-74
2022/05/20 03:33:36;;;;;;;13.30;5.47;;;;;;;14.15;78.28;93601.16;4972762;28;20039;-74
2022/05/20 03:36:04;;;;;;;11.27;5.32;;;;;;;14.13;79.24;93605.91;4955381;28;20492;-74
2022/05/20 03:38:30;;;;;;;12.80;5.43;;;;;;;14.11;78.90;93602.75;4971404;28;20071;-74
2022/05/20 03:40:56;;;;;;;8.07;5.30;;;;;;;14.10;78.87;93609.13;4972116;28;20046;-74
2022/05/20 03:43:23;;;;;;;10.13;6.00;;;;;;;14.08;78.94;93604.13;4972784;28;20043;-74
2022/05/20 03:45:50;;;;;;;10.20;5.45;;;;;;;14.13;78.92;93605.91;4969725;28;20047;-74
2022/05/20 03:48:16;;;;;;;9.82;5.90;;;;;;;14.13;78.92;93609.31;4972464;28;20034;-74
2022/05/20 03:50:41;;;;;;;12.68;5.28;;;;;;;14.13;79.10;93603.28;4971467;28;20060;-74
2022/05/20 03:53:07;;;;;;;10.68;5.85;;;;;;;14.11;79.07;93605.41;4970757;28;20136;-75
2022/05/20 03:55:33;;;;;;;13.15;6.18;;;;;;;14.09;79.46;93610.94;4955116;28;20038;-74
2022/05/20 03:57:58;;;;;;;13.30;5.60;;;;;;;14.08;79.63;93609.38;4970213;28;20089;-74
2022/05/20 04:00:24;;;;;;;12.20;5.45;;;;;;;14.09;79.56;93610.16;4971111;28;20112;-74
2022/05/20 04:02:49;;;;;;;8.70;5.53;;;;;;;14.09;79.53;93605.66;4971901;28;20043;-74
2022/05/20 04:05:15;;;;;;;11.43;5.38;;;;;;;14.10;80.14;93609.13;4972352;28;20109;-74
2022/05/20 04:07:41;;;;;;;12.00;5.65;;;;;;;14.10;80.41;93622.28;4971335;28;20578;-74
2022/05/20 04:10:08;;;;;;;15.23;5.72;;;;;;;14.08;80.72;93611.25;4954907;28;20047;-74
2022/05/20 04:12:37;;;;;;;11.80;5.70;;;;;;;14.12;80.86;93623.56;4972832;28;20396;-74
2022/05/20 04:15:06;;;;;;;12.45;6.88;;;;;;;14.14;80.84;93624.06;4975712;28;20039;-74
2022/05/20 04:17:31;;;;;;;10.07;5.90;;;;;;;14.15;81.05;93627.47;4976491;28;20582;-75
2022/05/20 04:19:57;;;;;;;10.30;5.72;;;;;;;14.17;80.97;93627.97;4959162;28;20078;-74
2022/05/20 04:22:32;;;;;;;10.82;5.82;;;;;;;14.21;80.35;93625.56;4978274;28;20404;-74
2022/05/20 04:24:59;;;;;;;16.70;6.00;;;;;;;14.28;79.99;93626.81;4975606;28;20039;-74
2022/05/20 04:27:24;;;;;;;12.20;5.55;;;;;;;14.34;80.77;93630.97;4977258;28;20030;-74
2022/05/20 04:29:50;;;;;;;16.77;6.32;;;;;;;14.42;80.32;93634.03;4977025;28;20698;-76
2022/05/20 04:32:16;;;;;;;9.30;5.97;;;;;;;14.44;81.29;93640.59;4977365;28;20405;-76
2022/05/20 04:34:44;;;;;;;9.27;6.00;;;;;;;14.49;80.50;93637.09;4978409;28;20065;-75
2022/05/20 04:37:09;;;;;;;11.60;6.05;;;;;;;14.53;79.73;93638.91;4984400;28;20046;-75
2022/05/20 04:39:35;;;;;;;14.65;6.38;;;;;;;14.59;79.18;93637.03;4978417;28;20388;-75
2022/05/20 04:47:31;;;;;;;11.98;6.22;;;;;;;15.00;78.17;93636.50;4963642;28;20043;-76
2022/05/20 04:49:57;;;;;;;13.82;6.25;;;;;;;15.06;77.50;93647.72;4981518;28;20037;-75
2022/05/20 04:52:23;;;;;;;16.30;6.18;;;;;;;15.06;77.72;93645.88;4977690;28;20034;-75
2022/05/20 04:54:52;;;;;;;14.52;5.95;;;;;;;15.09;77.61;93644.53;4997046;28;20052;-76
2022/05/20 04:57:55;;;;;;;9.93;6.03;;;;;;;15.15;77.02;93641.56;4997056;28;20117;-76
2022/05/20 05:00:27;;;;;;;14.32;6.55;;;;;;;15.24;77.67;93652.22;4957600;28;20049;-76
2022/05/20 05:02:53;;;;;;;13.90;6.80;;;;;;;15.32;77.40;93651.56;4995053;28;20112;-75
2022/05/20 05:05:22;;;;;;;15.77;6.80;;;;;;;15.42;77.34;93650.63;4995653;28;20038;-75
2022/05/20 05:07:50;;;;;;;12.93;6.40;;;;;;;15.54;77.07;93655.47;4996234;28;20046;-75
2022/05/20 05:10:19;;;;;;;13.02;6.45;;;;;;;15.67;76.65;93653.94;4997091;28;20040;-75
2022/05/20 05:12:45;;;;;;;12.63;6.07;;;;;;;15.83;76.08;93657.94;4997118;28;20034;-75
2022/05/20 05:15:12;;;;;;;13.52;6.20;;;;;;;15.97;75.96;93650.81;4996075;28;20042;-75
2022/05/20 05:20:25;;;;;;;10.68;6.47;;;;;;;16.38;75.09;93660.66;4980182;28;20259;-75
2022/05/20 05:22:53;;;;;;;12.90;6.15;;;;;;;16.56;74.86;93661.63;4962970;28;20045;-76
2022/05/20 05:25:22;;;;;;;13.35;6.47;;;;;;;16.75;73.81;93661.53;4960606;28;20034;-75
2022/05/20 05:27:48;;;;;;;15.23;6.43;;;;;;;16.90;73.32;93659.69;4992349;28;20507;-75
2022/05/20 05:30:15;;;;;;;11.70;7.30;;;;;;;17.01;73.05;93658.38;4991381;28;20047;-75
2022/05/20 05:32:41;;;;;;;13.07;6.68;;;;;;;17.11;73.06;93655.50;4993004;28;20405;-75
2022/05/20 05:35:10;;;;;;;13.18;7.15;;;;;;;17.21;73.40;93652.66;4976954;28;20165;-75
2022/05/20 05:37:40;;;;;;;16.83;6.80;;;;;;;17.35;73.67;93657.13;4976511;28;20053;-77
2022/05/20 05:40:09;;;;;;;12.98;7.10;;;;;;;17.50;73.04;93661.28;4963180;28;20041;-75
2022/05/20 05:42:35;;;;;;;14.32;7.32;;;;;;;17.64;72.45;93657.50;4973292;28;20034;-75
2022/05/20 05:45:01;;;;;;;14.25;6.93;;;;;;;17.84;72.10;93652.81;4973449;28;20043;-75
2022/05/20 05:47:27;;;;;;;13.25;7.20;;;;;;;17.96;71.78;93660.97;4974786;28;20038;-76
2022/05/20 05:49:52;;;;;;;14.52;6.55;;;;;;;18.17;70.79;93663.91;4964859;28;20038;-76
2022/05/20 05:52:18;;;;;;;15.10;7.35;;;;;;;18.54;69.63;93658.44;4973451;28;20046;-76
2022/05/20 05:54:44;;;;;;;19.15;8.27;;;;;;;18.80;68.96;93662.00;4974143;28;20515;-76
2022/05/20 05:57:10;;;;;;;20.65;7.45;;;;;;;19.10;68.99;93664.84;4992874;28;20045;-76
2022/05/20 05:59:37;;;;;;;15.25;7.93;;;;;;;19.08;70.18;93667.03;4957870;28;20393;-76
2022/05/20 06:02:04;;;;;;;29.20;8.90;;;;;;;19.08;71.11;93662.50;4991342;28;20037;-76
2022/05/20 06:04:30;;;;;;;18.52;8.20;;;;;;;19.42;69.85;93662.84;4992282;28;20503;-76
2022/05/20 06:06:56;;;;;;;13.05;8.00;;;;;;;20.00;66.61;93658.91;4993064;28;20026;-77
2022/05/20 06:09:23;;;;;;;15.30;7.88;;;;;;;20.89;64.47;93669.69;4978580;28;20628;-76
2022/05/20 06:11:49;;;;;;;20.05;8.30;;;;;;;21.58;61.31;93662.38;4973671;28;20507;-77
2022/05/20 06:14:16;;;;;;;17.05;7.95;;;;;;;22.04;58.22;93668.53;4992781;28;20089;-77
2022/05/20 06:16:42;;;;;;;15.50;7.95;;;;;;;22.21;54.94;93667.59;4990010;28;20109;-77
2022/05/20 06:19:08;;;;;;;16.75;7.80;;;;;;;22.68;53.70;93656.56;4994053;28;20034;-77
2022/05/20 06:21:34;;;;;;;18.50;8.38;;;;;;;22.11;58.54;93660.00;4992419;28;20121;-77
2022/05/20 06:24:01;;;;;;;23.85;9.52;;;;;;;21.78;60.88;93664.25;4990802;28;20035;-77
2022/05/20 06:26:31;;;;;;;22.92;10.07;;;;;;;21.30;61.40;93665.56;4992572;28;20069;-77
2022/05/20 06:28:56;;;;;;;23.60;10.00;;;;;;;21.69;61.05;93668.88;4975198;28;20039;-77
2022/05/20 06:31:22;;;;;;;28.13;9.88;;;;;;;22.21;59.33;93671.06;4992626;28;20038;-77
2022/05/20 06:33:48;;;;;;;20.67;8.65;;;;;;;22.09;58.17;93671.00;4991949;28;20042;-77
2022/05/20 06:41:42;;;;;;;17.45;8.80;;;;;;;22.42;53.88;93667.53;4992428;28;20121;-77
2022/05/20 06:44:08;;;;;;;22.48;8.55;;;;;;;22.50;54.17;93661.34;4992722;28;20387;-77
2022/05/20 06:46:34;;;;;;;29.90;9.75;;;;;;;22.40;54.53;93665.22;4975568;28;20037;-77
2022/05/20 06:49:01;;;;;;;22.52;8.82;;;;;;;22.42;54.18;93660.31;4959606;28;20062;-77
2022/05/20 06:51:30;;;;;;;28.52;10.25;;;;;;;21.98;58.33;93659.97;4975575;28;20042;-77
2022/05/20 06:53:59;;;;;;;26.27;9.45;;;;;;;21.49;59.84;93661.69;4992435;28;20022;-76
2022/05/20 06:56:28;;;;;;;22.95;10.02;;;;;;;21.35;62.22;93665.34;4975466;28;20034;-77
2022/05/20 06:58:55;;;;;;;21.05;9.70;;;;;;;20.96;61.27;93667.34;4992813;28;20113;-77
2022/05/20 07:01:20;;;;;;;24.95;9.07;;;;;;;20.93;60.43;93662.63;4959223;28;20022;-76
2022/05/20 07:03:46;;;;;;;21.48;8.73;;;;;;;20.90;61.27;93657.97;4992214;28;20030;-76
2022/05/20 07:06:14;;;;;;;24.90;9.85;;;;;;;20.81;61.30;93662.56;4975303;28;20026;-76
2022/05/20 07:08:40;;;;;;;16.13;8.43;;;;;;;20.87;62.12;93652.50;4992439;28;20563;-77
2022/05/20 07:11:06;;;;;;;16.15;8.88;;;;;;;20.79;60.11;93657.53;4992569;28;20046;-76
2022/05/20 07:13:32;;;;;;;21.42;8.32;;;;;;;20.95;60.96;93660.44;4992348;28;20034;-77
2022/05/20 07:15:59;;;;;;;18.10;7.93;;;;;;;20.69;56.00;93654.47;4974787;28;20038;-77
2022/05/20 07:18:28;;;;;;;16.90;8.43;;;;;;;20.91;59.76;93654.19;4992341;28;20054;-76
2022/05/20 07:20:54;;;;;;;16.45;8.80;;;;;;;20.85;63.62;93660.81;4958969;28;20527;-77
2022/05/20 07:23:22;;;;;;;17.23;8.32;;;;;;;20.76;63.88;93660.06;4974642;28;20044;-76
2022/05/20 07:25:50;;;;;;;30.83;8.43;;;;;;;20.92;61.53;93647.00;4991828;28;20040;-77
2022/05/20 07:28:15;;;;;;;77.75;13.27;;;;;;;20.93;62.38;93653.88;4992177;28;20053;-76
2022/05/20 07:30:41;;;;;;;17.20;8.13;;;;;;;21.07;60.02;93658.97;4992182;28;20042;-76
2022/05/20 07:33:07;;;;;;;28.10;8.75;;;;;;;21.06;63.05;93662.72;4992236;28;20038;-77
2022/05/20 07:35:32;;;;;;;20.65;8.25;;;;;;;20.73;61.79;93666.03;4964737;28;20038;-76
2022/05/20 07:37:58;;;;;;;16.42;8.18;;;;;;;20.78;62.99;93673.81;4951966;29;20059;-76
2022/05/20 07:40:23;;;;;;;19.17;7.45;;;;;;;20.88;59.95;93665.50;4953392;28;20066;-76
2022/05/20 07:42:49;;;;;;;16.08;7.78;;;;;;;20.98;60.60;93661.66;4953118;29;20497;-77
2022/05/20 07:45:16;;;;;;;14.55;7.28;;;;;;;20.82;60.00;93672.09;4955400;28;20059;-77
2022/05/20 07:47:42;;;;;;;15.98;7.20;;;;;;;20.79;61.35;93676.16;4971015;28;20437;-77
2022/05/20 07:50:09;;;;;;;14.90;7.60;;;;;;;20.98;59.60;93667.78;4956263;28;20042;-77
2022/05/20 07:55:25;;;;;;;12.90;6.68;;;;;;;21.04;56.29;93672.91;4974903;28;20042;-76
2022/05/20 07:57:52;;;;;;;15.50;7.22;;;;;;;21.18;58.34;93670.78;4972500;28;20039;-76
2022/05/20 08:00:20;;;;;;;16.10;6.30;;;;;;;21.31;60.64;93672.41;4971169;28;20061;-77
2022/05/20 08:02:47;;;;;;;15.10;7.45;;;;;;;21.15;59.28;93676.75;4970736;28;20070;-77
2022/05/20 08:05:14;;;;;;;12.35;6.53;;;;;;;21.20;60.02;93679.22;4971637;28;20439;-77
2022/05/20 08:07:45;;;;;;;15.30;7.18;;;;;;;20.96;59.29;93677.19;4971422;28;20552;-77
2022/05/20 08:10:12;;;;;;;16.90;7.10;;;;;;;21.16;60.52;93676.41;4971900;28;20396;-77
2022/05/20 08:12:38;;;;;;;16.55;6.95;;;;;;;21.19;60.28;93675.78;4970293;28;20113;-77
2022/05/20 08:15:05;;;;;;;14.05;7.65;;;;;;;20.84;60.03;93672.53;4973101;28;20771;-76
2022/05/20 08:17:35;;;;;;;12.93;7.43;;;;;;;20.68;62.74;93666.22;4969742;28;20066;-77
2022/05/20 08:20:04;;;;;;;22.83;8.18;;;;;;;20.86;63.27;93667.69;4971243;28;20481;-77
2022/05/20 08:22:30;;;;;;;15.65;7.68;;;;;;;20.87;62.51;93663.13;4972006;28;20034;-77
2022/05/20 08:24:58;;;;;;;16.50;7.72;;;;;;;20.97;62.33;93658.22;4971090;28;20125;-76
2022/05/20 08:27:26;;;;;;;14.70;7.70;;;;;;;21.13;61.91;93665.66;4972404;28;20043;-77
2022/05/20 08:29:52;;;;;;;12.75;7.45;;;;;;;21.11;60.58;93651.88;4972013;28;20396;-77
2022/05/20 08:32:18;;;;;;;12.93;7.28;;;;;;;21.34;61.04;93655.78;4971802;28;20031;-77
2022/05/20 08:34:45;;;;;;;15.30;6.93;;;;;;;21.29;59.65;93653.31;4967928;28;20104;-77
2022/05/20 08:37:12;;;;;;;16.25;7.50;;;;;;;21.32;59.14;93646.56;4974694;28;20042;-77
2022/05/20 08:39:38;;;;;;;12.88;6.88;;;;;;;21.33;59.98;93653.47;4985505;28;20129;-77
2022/05/20 08:42:05;;;;;;;13.98;7.28;;;;;;;21.10;58.32;93651.13;4954473;28;20121;-77
2022/05/20 08:44:33;;;;;;;18.65;8.13;;;;;;;21.06;58.90;93638.78;4953794;28;20042;-76
2022/05/20 08:47:45;;;;;;;17.83;8.10;;;;;;;21.18;58.21;93646.81;4970886;28;20035;-76
2022/05/20 08:50:16;;;;;;;14.75;7.65;;;;;;;21.37;59.05;93644.50;4970571;28;20058;-76
2022/05/20 08:52:43;;;;;;;14.55;7.28;;;;;;;21.54;57.76;93642.81;4978708;28;20039;-76
2022/05/20 08:55:10;;;;;;;16.23;7.72;;;;;;;21.75;57.02;93637.47;4971696;28;20038;-76
2022/05/20 08:57:38;;;;;;;21.42;8.55;;;;;;;22.14;57.23;93638.03;4970628;28;20023;-76
2022/05/20 09:00:10;;;;;;;21.38;7.50;;;;;;;22.04;54.97;93644.53;4971393;28;20122;-76
2022/05/20 09:02:36;;;;;;;16.98;7.43;;;;;;;21.91;54.25;93648.28;4975211;28;20073;-76
2022/05/20 09:05:13;;;;;;;14.60;6.50;;;;;;;22.11;54.83;93642.13;4975070;28;20117;-76
2022/05/20 09:08:00;;;;;;;14.43;6.30;;;;;;;22.03;54.90;93643.00;4974262;28;20053;-76
2022/05/20 09:10:38;;;;;;;12.75;7.10;;;;;;;22.00;55.43;93641.00;4975366;28;20057;-76
2022/05/20 09:13:10;;;;;;;17.48;7.85;;;;;;;21.73;54.62;93635.13;4974748;28;20041;-76
2022/05/20 09:15:46;;;;;;;;;;;;;;;21.82;55.83;93633.16;4972852;28;20287;-76
2022/05/20 09:18:11;;;;;;;21.05;8.10;;;;;;;21.74;54.42;93626.03;4973144;28;19918;-76
2022/05/20 09:20:52;;;;;;;16.15;6.70;;;;;;;22.09;55.12;93625.69;4974315;28;20026;-76
2022/05/20 09:23:23;;;;;;;17.40;7.85;;;;;;;22.23;55.39;93625.41;4938530;29;20118;-76
2022/05/20 09:26:02;;;;;;;13.93;8.02;;;;;;;22.24;54.35;93616.28;4970666;28;20042;-76
2022/05/20 09:28:39;;;;;;;15.35;6.95;;;;;;;22.52;54.54;93613.00;4974912;28;20031;-76
2022/05/20 09:31:32;;;;;;;14.55;7.35;;;;;;;22.45;54.25;93608.22;4973906;28;20049;-76
2022/05/20 09:34:31;;;;;;;16.08;7.65;;;;;;;22.58;54.06;93606.31;4975191;28;20117;-76
2022/05/20 09:37:00;;;;;;;19.77;7.47;;;;;;;22.37;52.88;93609.09;4976596;28;20481;-76
2022/05/20 09:39:30;;;;;;;16.42;7.82;;;;;;;22.47;53.81;93608.63;4976786;28;20134;-76
2022/05/20 09:41:58;;;;;;;16.60;8.15;;;;;;;22.75;52.26;93607.97;4960603;28;20033;-76
2022/05/20 09:44:33;;;;;;;17.02;8.00;;;;;;;22.77;51.84;93595.06;4960554;28;20042;-76
2022/05/20 09:47:05;;;;;;;15.52;7.45;;;;;;;22.88;52.13;93590.84;4993716;28;20034;-76
2022/05/20 09:49:38;;;;;;;;;;;;;;;23.05;51.29;93595.16;4985599;28;20471;-76
2022/05/20 09:52:16;;;;;;;20.23;8.57;;;;;;;23.02;51.41;93593.94;4993906;28;19914;-76
2022/05/20 09:54:47;;;;;;;15.25;6.65;;;;;;;22.98;51.08;93595.69;4976409;28;20144;-76
2022/05/20 09:57:21;;;;;;;15.27;8.27;;;;;;;22.72;50.92;93589.94;4994125;28;20076;-76
2022/05/20 10:00:04;;;;;;;15.23;7.93;;;;;;;22.84;51.47;93581.94;4976106;28;20404;-76
2022/05/20 10:03:05;;;;;;;17.20;8.35;;;;;;;22.89;50.69;93587.03;4976852;28;20523;-76
2022/05/20 10:05:59;;;;;;;22.60;8.75;;;;;;;23.23;49.94;93585.00;4973708;28;20041;-76
2022/05/20 10:08:35;;;;;;;16.15;8.50;;;;;;;23.56;50.89;93579.41;4993236;28;20097;-77
2022/05/20 10:11:30;;;;;;;15.48;8.02;;;;;;;23.83;50.57;93579.78;4999856;28;20121;-77
2022/05/20 10:14:07;;;;;;;20.83;8.57;;;;;;;24.09;49.42;93574.72;4962248;28;20519;-78
2022/05/20 10:16:51;;;;;;;17.30;8.82;;;;;;;23.97;48.47;93569.44;4982572;28;20596;-79
2022/05/20 10:19:55;;;;;;;21.27;8.27;;;;;;;24.19;47.70;93569.97;4984576;28;20042;-78
2022/05/20 10:22:46;;;;;;;20.23;9.02;;;;;;;24.43;48.02;93567.13;4985211;28;20050;-78
2022/05/20 10:25:37;;;;;;;14.90;7.93;;;;;;;24.55;48.88;93571.63;5001968;28;20061;-78
2022/05/20 10:32:34;;;;;;;18.73;8.50;;;;;;;24.45;48.44;93572.09;4967251;28;20046;-77
2022/05/20 10:33:58;;;;;;;18.65;8.70;;;;;;;23.96;48.28;93565.22;4997761;28;20041;-77
2022/05/20 10:36:37;;;;;;;23.58;8.45;;;;;;;24.18;48.34;93561.16;4996590;28;20435;-77
2022/05/20 10:39:27;;;;;;;15.70;8.63;;;;;;;24.08;48.65;93550.97;4975410;28;20053;-77
2022/05/20 10:42:11;;;;;;;15.82;9.00;;;;;;;23.84;49.10;93560.69;4994443;28;20050;-78
2022/05/20 10:51:17;;;;;;;20.65;8.77;;;;;;;24.25;51.11;93550.63;4967388;28;20560;-80
2022/05/20 10:53:55;;;;;;;18.98;8.43;;;;;;;24.68;49.04;93548.97;4967927;28;20529;-78
2022/05/20 10:56:26;;;;;;;20.30;9.00;;;;;;;24.85;49.17;93539.00;4993276;28;20038;-80
2022/05/20 10:59:27;;;;;;;20.38;8.70;;;;;;;24.49;48.34;93543.56;4994705;28;20034;-80
2022/05/20 11:02:39;;;;;;;15.63;8.40;;;;;;;24.48;50.90;93550.03;4993764;28;20045;-79
2022/05/20 11:05:24;;;;;;;21.92;9.07;;;;;;;24.81;49.35;93546.16;4973946;28;20097;-79
2022/05/20 11:08:35;;;;;;;17.88;8.20;;;;;;;25.09;48.78;93549.44;4994416;28;20042;-81
2022/05/20 11:11:25;;;;;;;24.42;9.50;;;;;;;25.32;47.40;93538.06;4968909;28;20048;-81
2022/05/20 11:14:13;;;;;;;18.75;9.43;;;;;;;25.47;48.05;93539.88;4986237;28;20473;-80
2022/05/20 11:17:02;;;;;;;19.67;9.80;;;;;;;25.04;48.93;93543.59;4977422;28;20065;-79
2022/05/20 11:19:36;;;;;;;19.92;10.10;;;;;;;25.10;48.61;93545.63;4988216;28;20383;-81
2022/05/20 11:22:50;;;;;;;15.68;9.02;;;;;;;25.12;48.24;93547.97;4991460;28;20061;-80
2022/05/20 11:25:52;;;;;;;23.85;11.07;;;;;;;25.08;48.44;93539.06;4987318;28;20042;-80
2022/05/20 11:28:40;;;;;;;21.13;10.05;;;;;;;25.07;47.96;93540.22;4980786;28;20046;-80
2022/05/20 11:31:12;;;;;;;18.98;9.55;;;;;;;24.87;48.23;93536.75;4983066;28;20030;-80
2022/05/20 11:33:44;;;;;;;14.88;9.75;;;;;;;24.81;49.27;93535.44;4987903;28;20041;-80
2022/05/20 11:39:11;;;;;;;21.48;9.85;;;;;;;24.49;49.12;93530.19;4994862;28;20129;-81
2022/05/20 11:42:03;;;;;;;18.48;9.52;;;;;;;24.34;49.18;93529.06;5010927;28;20052;-78
2022/05/20 11:45:10;;;;;;;19.50;9.85;;;;;;;23.95;48.78;93528.09;4992739;28;20034;-80
2022/05/20 11:47:54;;;;;;;17.17;10.77;;;;;;;23.35;49.79;93523.53;5016397;28;20498;-82
2022/05/20 11:50:39;;;;;;;22.85;10.32;;;;;;;23.44;51.38;93521.47;4978684;28;20049;-81
2022/05/20 11:53:34;;;;;;;16.90;7.85;;;;;;;23.41;50.16;93527.47;5012463;28;20029;-80
2022/05/20 11:56:08;;;;;;;20.25;9.38;;;;;;;23.68;52.18;93517.88;4996386;28;20040;-82
2022/05/20 11:59:02;;;;;;;14.70;8.15;;;;;;;23.61;50.82;93514.25;5000154;28;20048;-80
2022/05/20 12:01:29;;;;;;;26.02;9.85;;;;;;;24.08;49.72;93508.19;4983122;28;20038;-80
2022/05/20 12:04:07;;;;;;;22.00;10.00;;;;;;;24.12;50.02;93517.06;4990675;28;20030;-81
2022/05/20 12:06:45;;;;;;;19.13;9.75;;;;;;;23.80;49.92;93513.59;5012456;28;20034;-81
2022/05/20 12:09:32;;;;;;;21.20;9.13;;;;;;;24.03;49.76;93509.22;4971827;28;20066;-79
2022/05/20 12:12:30;;;;;;;23.20;9.85;;;;;;;24.26;51.05;93498.69;5012680;28;20079;-81
2022/05/20 12:15:01;;;;;;;70.15;14.60;;;;;;;24.31;48.70;93500.31;4996361;28;20129;-80
2022/05/20 12:17:29;;;;;;;22.60;10.38;;;;;;;23.81;49.04;93496.47;5015922;28;20537;-82
2022/05/20 12:26:07;;;;;;;15.88;7.53;;;;;;;24.04;47.28;93493.94;4969215;28;20072;-82
2022/05/20 12:28:36;;;;;;;25.10;10.13;;;;;;;24.09;48.72;93485.66;5015641;28;20386;-79
2022/05/20 12:31:19;;;;;;;16.88;9.55;;;;;;;24.02;49.19;93488.16;4964429;28;20049;-79